TimeEST,TemperatureF,Dew PointF,Humidity,Sea Level PressureIn,VisibilityMPH,Wind Direction,Wind SpeedMPH,Gust SpeedMPH,PrecipitationIn,Events,Conditions,WindDirDegrees,DateUTC
12:54 AM,39.0,34.0,82,30.23,10.0,West,5.8,-,N/A,,Mostly Cloudy,270,2012-12-05 05:54:00
1:54 AM,39.0,33.1,79,30.24,10.0,WNW,5.8,-,N/A,,Mostly Cloudy,290,2012-12-05 06:54:00
2:54 AM,39.0,33.1,79,30.27,10.0,NW,6.9,-,N/A,,Partly Cloudy,310,2012-12-05 07:54:00
3:54 AM,37.0,32.0,82,30.29,10.0,NNW,9.2,-,N/A,,Mostly Cloudy,330,2012-12-05 08:54:00
4:54 AM,36.0,30.9,82,30.30,10.0,NNW,11.5,-,N/A,,Mostly Cloudy,340,2012-12-05 09:54:00
5:54 AM,35.1,28.9,78,30.32,10.0,NNW,12.7,-,N/A,,Mostly Cloudy,340,2012-12-05 10:54:00
6:54 AM,34.0,28.0,79,30.34,10.0,NNW,10.4,-,N/A,,Scattered Clouds,340,2012-12-05 11:54:00
7:54 AM,32.0,27.0,82,30.38,10.0,North,5.8,-,N/A,,Partly Cloudy,10,2012-12-05 12:54:00
9:54 AM,34.0,25.0,70,30.43,10.0,North,10.4,-,N/A,,Partly Cloudy,10,2012-12-05 14:54:00
10:54 AM,36.0,25.0,64,30.44,10.0,NNE,11.5,-,N/A,,Scattered Clouds,20,2012-12-05 15:54:00
11:54 AM,37.0,24.1,59,30.41,10.0,NNE,10.4,-,N/A,,Scattered Clouds,30,2012-12-05 16:54:00
12:54 PM,37.9,26.1,62,30.40,10.0,ENE,10.4,-,N/A,,Mostly Cloudy,60,2012-12-05 17:54:00
1:54 PM,37.9,25.0,60,30.40,10.0,NNE,4.6,-,N/A,,Mostly Cloudy,30,2012-12-05 18:54:00
2:54 PM,37.9,24.1,57,30.39,10.0,Variable,3.5,-,N/A,,Mostly Cloudy,0,2012-12-05 19:54:00
3:54 PM,37.0,25.0,62,30.39,10.0,East,9.2,-,N/A,,Scattered Clouds,100,2012-12-05 20:54:00
4:54 PM,34.0,25.0,70,30.40,10.0,East,4.6,-,N/A,,Mostly Cloudy,90,2012-12-05 21:54:00
5:54 PM,30.0,24.1,79,30.40,10.0,East,4.6,-,N/A,,Partly Cloudy,100,2012-12-05 22:54:00
6:54 PM,30.0,24.1,79,30.40,10.0,ENE,4.6,-,N/A,,Partly Cloudy,70,2012-12-05 23:54:00
7:54 PM,28.9,24.1,82,30.40,10.0,Calm,Calm,-,N/A,,Partly Cloudy,0,2012-12-06 00:54:00
8:54 PM,27.0,23.0,85,30.39,10.0,ENE,3.5,-,N/A,,Partly Cloudy,70,2012-12-06 01:54:00
9:54 PM,26.1,21.9,84,30.37,10.0,East,5.8,-,N/A,,Partly Cloudy,100,2012-12-06 02:54:00
10:54 PM,27.0,23.0,85,30.35,10.0,East,8.1,-,N/A,,Mostly Cloudy,90,2012-12-06 03:54:00
11:54 PM,28.0,23.0,81,30.33,10.0,ESE,9.2,-,N/A,,Scattered Clouds,110,2012-12-06 04:54:00